sensor_id;sensor_type;location;lat;lon;timestamp;pressure;altitude;pressure_sealevel;temperature;humidity
76321;BME280;65132;52.088;5.402;2023-01-29T00:01:18;103152.47;;;3.63;82.07
76321;BME280;65132;52.088;5.402;2023-01-29T00:03:45;103140.22;;;3.55;81.49
76321;BME280;65132;52.088;5.402;2023-01-29T00:06:12;103128.47;;;3.60;81.59
76321;BME280;65132;52.088;5.402;2023-01-29T00:08:38;103138.28;;;3.60;81.78
76321;BME280;65132;52.088;5.402;2023-01-29T00:11:06;103132.97;;;3.58;82.18
76321;BME280;65132;52.088;5.402;2023-01-29T00:13:33;103130.34;;;3.57;81.47
76321;BME280;65132;52.088;5.402;2023-01-29T00:16:00;103124.31;;;3.50;83.03
76321;BME280;65132;52.088;5.402;2023-01-29T00:18:27;103117.56;;;3.36;83.01
76321;BME280;65132;52.088;5.402;2023-01-29T00:20:54;103107.56;;;3.42;83.31
76321;BME280;65132;52.088;5.402;2023-01-29T00:23:21;103104.03;;;3.42;82.86
76321;BME280;65132;52.088;5.402;2023-01-29T00:25:48;103091.00;;;3.30;82.86
76321;BME280;65132;52.088;5.402;2023-01-29T00:28:15;103106.88;;;3.36;83.41
76321;BME280;65132;52.088;5.402;2023-01-29T00:30:41;103088.44;;;3.25;83.66
76321;BME280;65132;52.088;5.402;2023-01-29T00:33:08;103084.19;;;3.18;83.73
76321;BME280;65132;52.088;5.402;2023-01-29T00:35:34;103097.59;;;3.17;83.99
76321;BME280;65132;52.088;5.402;2023-01-29T00:38:01;103088.66;;;3.18;83.75
76321;BME280;65132;52.088;5.402;2023-01-29T00:40:27;103098.47;;;3.17;83.54
76321;BME280;65132;52.088;5.402;2023-01-29T00:42:54;103106.25;;;3.26;83.63
76321;BME280;65132;52.088;5.402;2023-01-29T00:45:20;103102.50;;;3.33;83.92
76321;BME280;65132;52.088;5.402;2023-01-29T00:47:47;103104.41;;;3.28;83.84
76321;BME280;65132;52.088;5.402;2023-01-29T00:50:13;103096.53;;;3.22;83.65
76321;BME280;65132;52.088;5.402;2023-01-29T00:52:41;103089.88;;;3.06;84.54
76321;BME280;65132;52.088;5.402;2023-01-29T00:55:09;103082.91;;;3.01;84.94
76321;BME280;65132;52.088;5.402;2023-01-29T00:57:36;103097.47;;;3.21;84.49
76321;BME280;65132;52.088;5.402;2023-01-29T01:00:06;103083.50;;;3.10;84.80
76321;BME280;65132;52.088;5.402;2023-01-29T01:02:33;103078.19;;;3.09;85.22
76321;BME280;65132;52.088;5.402;2023-01-29T01:04:59;103079.88;;;3.13;84.93
76321;BME280;65132;52.088;5.402;2023-01-29T01:07:26;103065.63;;;3.12;84.71
76321;BME280;65132;52.088;5.402;2023-01-29T01:09:53;103080.69;;;3.16;85.01
76321;BME280;65132;52.088;5.402;2023-01-29T01:12:20;103061.66;;;3.27;83.46
76321;BME280;65132;52.088;5.402;2023-01-29T01:14:47;103056.31;;;3.27;83.83
76321;BME280;65132;52.088;5.402;2023-01-29T01:17:13;103066.41;;;3.46;83.38
76321;BME280;65132;52.088;5.402;2023-01-29T01:19:43;103063.25;;;3.32;83.41
76321;BME280;65132;52.088;5.402;2023-01-29T01:22:09;103069.19;;;3.43;83.38
76321;BME280;65132;52.088;5.402;2023-01-29T01:24:36;103060.72;;;3.28;83.97
76321;BME280;65132;52.088;5.402;2023-01-29T01:27:03;103059.22;;;3.18;84.16
76321;BME280;65132;52.088;5.402;2023-01-29T01:29:30;103069.84;;;3.21;84.30
76321;BME280;65132;52.088;5.402;2023-01-29T01:31:56;103067.25;;;3.18;84.71
76321;BME280;65132;52.088;5.402;2023-01-29T01:34:23;103067.59;;;3.36;83.65
76321;BME280;65132;52.088;5.402;2023-01-29T01:36:49;103068.50;;;3.37;84.00
76321;BME280;65132;52.088;5.402;2023-01-29T01:39:16;103089.66;;;3.44;83.01
76321;BME280;65132;52.088;5.402;2023-01-29T01:41:42;103080.16;;;3.34;83.67
76321;BME280;65132;52.088;5.402;2023-01-29T01:47:14;103077.91;;;3.50;82.87
76321;BME280;65132;52.088;5.402;2023-01-29T01:49:43;103077.03;;;3.49;83.20
76321;BME280;65132;52.088;5.402;2023-01-29T01:52:11;103082.47;;;3.46;82.84
76321;BME280;65132;52.088;5.402;2023-01-29T01:54:38;103073.59;;;3.44;82.19
76321;BME280;65132;52.088;5.402;2023-01-29T01:57:09;103088.72;;;3.47;83.07
76321;BME280;65132;52.088;5.402;2023-01-29T01:59:38;103066.56;;;3.42;83.07
76321;BME280;65132;52.088;5.402;2023-01-29T02:02:06;103078.13;;;3.42;83.11
76321;BME280;65132;52.088;5.402;2023-01-29T02:04:32;103078.47;;;3.32;84.39
76321;BME280;65132;52.088;5.402;2023-01-29T02:07:02;103074.81;;;3.34;83.98
76321;BME280;65132;52.088;5.402;2023-01-29T02:09:43;103081.13;;;3.32;84.29
76321;BME280;65132;52.088;5.402;2023-01-29T02:12:13;103077.06;;;3.48;83.33
76321;BME280;65132;52.088;5.402;2023-01-29T02:14:42;103049.03;;;3.32;83.43
76321;BME280;65132;52.088;5.402;2023-01-29T02:17:12;103075.19;;;3.51;82.67
76321;BME280;65132;52.088;5.402;2023-01-29T02:27:56;103072.06;;;3.36;83.99
76321;BME280;65132;52.088;5.402;2023-01-29T02:30:33;103074.53;;;3.43;83.34
76321;BME280;65132;52.088;5.402;2023-01-29T02:41:38;103085.75;;;3.56;81.74
76321;BME280;65132;52.088;5.402;2023-01-29T02:46:52;103093.00;;;3.52;82.58
76321;BME280;65132;52.088;5.402;2023-01-29T02:49:33;103097.00;;;3.38;82.83
76321;BME280;65132;52.088;5.402;2023-01-29T02:52:09;103095.22;;;3.38;83.20
76321;BME280;65132;52.088;5.402;2023-01-29T02:54:57;103099.13;;;3.56;83.07
76321;BME280;65132;52.088;5.402;2023-01-29T02:57:29;103088.56;;;3.51;82.83
76321;BME280;65132;52.088;5.402;2023-01-29T03:00:03;103075.34;;;3.47;83.31
76321;BME280;65132;52.088;5.402;2023-01-29T03:02:42;103091.44;;;3.45;83.21
76321;BME280;65132;52.088;5.402;2023-01-29T03:05:15;103096.13;;;3.37;83.88
76321;BME280;65132;52.088;5.402;2023-01-29T03:07:52;103087.19;;;3.38;84.15
76321;BME280;65132;52.088;5.402;2023-01-29T03:10:34;103086.38;;;3.35;84.53
76321;BME280;65132;52.088;5.402;2023-01-29T03:13:17;103086.25;;;3.39;83.63
76321;BME280;65132;52.088;5.402;2023-01-29T03:15:51;103083.63;;;3.38;83.68
76321;BME280;65132;52.088;5.402;2023-01-29T03:18:22;103085.59;;;3.31;84.58
76321;BME280;65132;52.088;5.402;2023-01-29T03:20:53;103069.00;;;3.19;85.17
76321;BME280;65132;52.088;5.402;2023-01-29T03:23:29;103070.78;;;3.20;84.85
76321;BME280;65132;52.088;5.402;2023-01-29T03:25:58;103080.69;;;3.16;85.43
76321;BME280;65132;52.088;5.402;2023-01-29T03:28:26;103070.19;;;3.09;85.22
76321;BME280;65132;52.088;5.402;2023-01-29T03:30:55;103049.00;;;3.01;85.42
76321;BME280;65132;52.088;5.402;2023-01-29T03:33:26;103056.91;;;3.06;85.71
76321;BME280;65132;52.088;5.402;2023-01-29T03:36:12;103047.84;;;3.11;85.47
76321;BME280;65132;52.088;5.402;2023-01-29T03:38:40;103052.25;;;3.12;85.51
76321;BME280;65132;52.088;5.402;2023-01-29T03:43:50;103037.19;;;3.10;85.70
76321;BME280;65132;52.088;5.402;2023-01-29T03:49:22;103033.88;;;3.00;86.62
76321;BME280;65132;52.088;5.402;2023-01-29T03:52:07;103035.75;;;2.97;86.89
76321;BME280;65132;52.088;5.402;2023-01-29T03:55:14;103033.06;;;2.97;85.85
76321;BME280;65132;52.088;5.402;2023-01-29T03:57:56;103034.72;;;3.02;86.35
76321;BME280;65132;52.088;5.402;2023-01-29T04:00:40;103032.47;;;3.18;85.00
76321;BME280;65132;52.088;5.402;2023-01-29T04:03:22;103023.81;;;3.08;85.31
76321;BME280;65132;52.088;5.402;2023-01-29T04:08:47;103023.88;;;3.07;86.05
76321;BME280;65132;52.088;5.402;2023-01-29T04:11:19;103011.63;;;2.98;85.40
76321;BME280;65132;52.088;5.402;2023-01-29T04:13:47;103007.22;;;2.97;86.31
76321;BME280;65132;52.088;5.402;2023-01-29T04:16:24;103006.44;;;2.94;86.05
76321;BME280;65132;52.088;5.402;2023-01-29T04:18:53;103004.34;;;3.03;85.05
76321;BME280;65132;52.088;5.402;2023-01-29T04:21:20;102997.56;;;2.92;85.38
76321;BME280;65132;52.088;5.402;2023-01-29T04:23:47;103008.97;;;2.98;85.50
76321;BME280;65132;52.088;5.402;2023-01-29T04:34:49;103000.38;;;2.87;84.87
76321;BME280;65132;52.088;5.402;2023-01-29T04:37:28;103004.69;;;2.91;85.11
76321;BME280;65132;52.088;5.402;2023-01-29T04:42:54;103002.03;;;2.91;83.83
76321;BME280;65132;52.088;5.402;2023-01-29T04:48:16;103004.13;;;2.80;85.48
76321;BME280;65132;52.088;5.402;2023-01-29T04:50:56;103000.09;;;2.96;83.80
76321;BME280;65132;52.088;5.402;2023-01-29T04:53:35;102988.97;;;2.81;84.92
76321;BME280;65132;52.088;5.402;2023-01-29T04:56:20;102986.25;;;2.82;84.33
76321;BME280;65132;52.088;5.402;2023-01-29T04:58:54;102989.88;;;2.80;84.08
76321;BME280;65132;52.088;5.402;2023-01-29T05:01:25;102978.50;;;2.73;84.71
76321;BME280;65132;52.088;5.402;2023-01-29T05:03:53;102986.59;;;2.70;84.31
76321;BME280;65132;52.088;5.402;2023-01-29T05:06:21;102968.03;;;2.64;84.78
76321;BME280;65132;52.088;5.402;2023-01-29T05:08:50;102970.91;;;2.58;85.51
76321;BME280;65132;52.088;5.402;2023-01-29T05:11:17;102964.41;;;2.67;85.32
76321;BME280;65132;52.088;5.402;2023-01-29T05:13:46;102968.13;;;2.61;84.98
76321;BME280;65132;52.088;5.402;2023-01-29T05:16:18;102976.66;;;2.75;84.14
76321;BME280;65132;52.088;5.402;2023-01-29T05:18:47;102971.06;;;2.84;83.64
76321;BME280;65132;52.088;5.402;2023-01-29T05:21:14;102976.31;;;2.87;83.18
76321;BME280;65132;52.088;5.402;2023-01-29T05:23:40;102972.75;;;2.87;82.85
76321;BME280;65132;52.088;5.402;2023-01-29T05:26:07;102979.09;;;2.83;83.88
76321;BME280;65132;52.088;5.402;2023-01-29T05:28:33;102974.97;;;2.71;84.21
76321;BME280;65132;52.088;5.402;2023-01-29T05:31:00;102984.63;;;2.77;84.04
76321;BME280;65132;52.088;5.402;2023-01-29T05:33:29;102990.63;;;2.85;83.92
76321;BME280;65132;52.088;5.402;2023-01-29T05:35:58;102987.41;;;2.74;83.83
76321;BME280;65132;52.088;5.402;2023-01-29T05:38:25;102989.03;;;2.78;84.39
76321;BME280;65132;52.088;5.402;2023-01-29T05:40:53;102967.00;;;2.70;84.53
76321;BME280;65132;52.088;5.402;2023-01-29T05:43:22;102981.06;;;2.76;83.86
76321;BME280;65132;52.088;5.402;2023-01-29T05:45:57;102981.25;;;2.70;83.74
76321;BME280;65132;52.088;5.402;2023-01-29T05:48:25;102989.13;;;2.75;83.81
76321;BME280;65132;52.088;5.402;2023-01-29T05:50:51;102985.66;;;2.71;84.50
76321;BME280;65132;52.088;5.402;2023-01-29T05:53:18;102976.84;;;2.68;83.54
76321;BME280;65132;52.088;5.402;2023-01-29T05:55:46;102995.38;;;2.75;83.18
76321;BME280;65132;52.088;5.402;2023-01-29T05:58:13;102981.34;;;2.67;84.14
76321;BME280;65132;52.088;5.402;2023-01-29T06:00:40;102980.22;;;2.76;83.51
76321;BME280;65132;52.088;5.402;2023-01-29T06:03:07;102966.00;;;2.74;82.90
76321;BME280;65132;52.088;5.402;2023-01-29T06:05:37;102968.53;;;2.78;82.74
76321;BME280;65132;52.088;5.402;2023-01-29T06:08:04;102957.09;;;2.73;83.46
76321;BME280;65132;52.088;5.402;2023-01-29T06:10:32;102955.41;;;2.71;83.67
76321;BME280;65132;52.088;5.402;2023-01-29T06:13:01;102952.69;;;2.72;84.00
76321;BME280;65132;52.088;5.402;2023-01-29T06:15:28;102949.03;;;2.75;82.95
76321;BME280;65132;52.088;5.402;2023-01-29T06:17:55;102940.13;;;2.74;83.00
76321;BME280;65132;52.088;5.402;2023-01-29T06:20:23;102948.28;;;2.70;83.58
76321;BME280;65132;52.088;5.402;2023-01-29T06:22:50;102956.91;;;2.81;82.58
76321;BME280;65132;52.088;5.402;2023-01-29T06:25:16;102933.88;;;2.75;82.43
76321;BME280;65132;52.088;5.402;2023-01-29T06:27:43;102930.44;;;2.72;82.10
76321;BME280;65132;52.088;5.402;2023-01-29T06:30:10;102933.88;;;2.75;82.17
76321;BME280;65132;52.088;5.402;2023-01-29T06:32:37;102940.13;;;2.76;82.81
76321;BME280;65132;52.088;5.402;2023-01-29T06:35:03;102928.50;;;2.77;82.37
76321;BME280;65132;52.088;5.402;2023-01-29T06:37:30;102903.84;;;2.66;81.96
76321;BME280;65132;52.088;5.402;2023-01-29T06:39:57;102932.88;;;2.79;82.70
76321;BME280;65132;52.088;5.402;2023-01-29T06:42:23;102930.97;;;2.84;81.97
76321;BME280;65132;52.088;5.402;2023-01-29T06:44:50;102933.63;;;2.84;82.02
76321;BME280;65132;52.088;5.402;2023-01-29T06:47:16;102932.50;;;2.91;82.61
76321;BME280;65132;52.088;5.402;2023-01-29T06:49:43;102941.41;;;2.92;80.89
76321;BME280;65132;52.088;5.402;2023-01-29T06:52:09;102947.81;;;2.86;81.38
76321;BME280;65132;52.088;5.402;2023-01-29T06:54:36;102934.78;;;2.76;81.98
76321;BME280;65132;52.088;5.402;2023-01-29T06:57:02;102923.34;;;2.71;81.77
76321;BME280;65132;52.088;5.402;2023-01-29T06:59:29;102924.88;;;2.78;81.79
76321;BME280;65132;52.088;5.402;2023-01-29T07:01:55;102932.16;;;2.73;82.66
76321;BME280;65132;52.088;5.402;2023-01-29T07:04:22;102934.78;;;2.74;81.83
76321;BME280;65132;52.088;5.402;2023-01-29T07:06:48;102930.31;;;2.75;82.41
76321;BME280;65132;52.088;5.402;2023-01-29T07:09:15;102927.53;;;2.79;82.29
76321;BME280;65132;52.088;5.402;2023-01-29T07:11:41;102920.47;;;2.77;81.67
76321;BME280;65132;52.088;5.402;2023-01-29T07:14:08;102915.19;;;2.75;82.62
76321;BME280;65132;52.088;5.402;2023-01-29T07:16:34;102937.22;;;2.83;82.19
76321;BME280;65132;52.088;5.402;2023-01-29T07:19:01;102923.88;;;2.82;82.33
76321;BME280;65132;52.088;5.402;2023-01-29T07:21:27;102945.28;;;2.82;81.78
76321;BME280;65132;52.088;5.402;2023-01-29T07:23:54;102931.03;;;2.81;82.14
76321;BME280;65132;52.088;5.402;2023-01-29T07:26:22;102932.81;;;2.82;81.82
76321;BME280;65132;52.088;5.402;2023-01-29T07:28:48;102933.63;;;2.84;80.94
76321;BME280;65132;52.088;5.402;2023-01-29T07:31:15;102935.53;;;2.81;82.39
76321;BME280;65132;52.088;5.402;2023-01-29T07:33:43;102930.13;;;2.82;81.23
76321;BME280;65132;52.088;5.402;2023-01-29T07:36:10;102928.31;;;2.83;81.24
76321;BME280;65132;52.088;5.402;2023-01-29T07:38:37;102936.91;;;2.94;80.54
76321;BME280;65132;52.088;5.402;2023-01-29T07:41:03;102941.56;;;2.87;80.79
76321;BME280;65132;52.088;5.402;2023-01-29T07:43:30;102924.00;;;2.79;81.21
76321;BME280;65132;52.088;5.402;2023-01-29T07:46:01;102929.09;;;2.86;82.02
76321;BME280;65132;52.088;5.402;2023-01-29T07:48:27;102917.50;;;2.87;81.83
76321;BME280;65132;52.088;5.402;2023-01-29T07:50:55;102912.16;;;2.87;82.05
76321;BME280;65132;52.088;5.402;2023-01-29T07:55:57;102910.31;;;2.89;81.14
76321;BME280;65132;52.088;5.402;2023-01-29T08:01:04;102895.06;;;2.93;81.87
76321;BME280;65132;52.088;5.402;2023-01-29T08:03:31;102882.69;;;2.89;81.56
76321;BME280;65132;52.088;5.402;2023-01-29T08:05:57;102883.53;;;2.91;81.31
76321;BME280;65132;52.088;5.402;2023-01-29T08:08:24;102901.88;;;3.03;80.60
76321;BME280;65132;52.088;5.402;2023-01-29T08:10:50;102886.94;;;2.96;81.24
76321;BME280;65132;52.088;5.402;2023-01-29T08:13:17;102870.84;;;2.97;80.74
76321;BME280;65132;52.088;5.402;2023-01-29T08:15:43;102871.00;;;2.93;80.48
76321;BME280;65132;52.088;5.402;2023-01-29T08:18:13;102897.13;;;3.12;81.16
76321;BME280;65132;52.088;5.402;2023-01-29T08:20:39;102871.69;;;2.99;80.85
76321;BME280;65132;52.088;5.402;2023-01-29T08:23:12;102892.75;;;3.10;79.92
76321;BME280;65132;52.088;5.402;2023-01-29T08:25:40;102888.31;;;3.09;80.75
76321;BME280;65132;52.088;5.402;2023-01-29T08:28:07;102900.69;;;3.13;80.37
76321;BME280;65132;52.088;5.402;2023-01-29T08:30:34;102895.19;;;3.17;80.62
76321;BME280;65132;52.088;5.402;2023-01-29T08:33:02;102889.88;;;3.16;80.14
76321;BME280;65132;52.088;5.402;2023-01-29T08:35:30;102884.63;;;3.13;80.76
76321;BME280;65132;52.088;5.402;2023-01-29T08:38:00;102881.06;;;3.12;80.36
76321;BME280;65132;52.088;5.402;2023-01-29T08:40:30;102875.78;;;3.11;80.30
76321;BME280;65132;52.088;5.402;2023-01-29T08:43:04;102876.66;;;3.11;80.84
76321;BME280;65132;52.088;5.402;2023-01-29T08:45:36;102863.34;;;3.10;80.46
76321;BME280;65132;52.088;5.402;2023-01-29T08:48:05;102863.91;;;3.19;79.61
76321;BME280;65132;52.088;5.402;2023-01-29T08:50:33;102860.19;;;3.25;79.48
76321;BME280;65132;52.088;5.402;2023-01-29T08:53:02;102861.91;;;3.26;79.94
76321;BME280;65132;52.088;5.402;2023-01-29T09:00:45;102849.88;;;3.39;78.79
76321;BME280;65132;52.088;5.402;2023-01-29T09:03:12;102854.50;;;3.34;80.19
76321;BME280;65132;52.088;5.402;2023-01-29T09:08:20;102850.97;;;3.33;79.34
76321;BME280;65132;52.088;5.402;2023-01-29T09:10:46;102855.34;;;3.36;80.14
76321;BME280;65132;52.088;5.402;2023-01-29T09:13:13;102845.69;;;3.30;79.74
76321;BME280;65132;52.088;5.402;2023-01-29T09:15:40;102867.56;;;3.44;79.35
76321;BME280;65132;52.088;5.402;2023-01-29T09:20:56;102861.13;;;3.50;78.85
76321;BME280;65132;52.088;5.402;2023-01-29T09:23:23;102843.28;;;3.50;78.53
76321;BME280;65132;52.088;5.402;2023-01-29T09:25:49;102852.09;;;3.52;79.62
76321;BME280;65132;52.088;5.402;2023-01-29T09:30:51;102856.28;;;3.61;78.19
76321;BME280;65132;52.088;5.402;2023-01-29T09:33:18;102853.38;;;3.68;78.50
76321;BME280;65132;52.088;5.402;2023-01-29T09:35:45;102855.22;;;3.66;79.05
76321;BME280;65132;52.088;5.402;2023-01-29T09:38:12;102863.13;;;3.71;77.94
76321;BME280;65132;52.088;5.402;2023-01-29T09:40:58;102843.50;;;3.71;77.67
76321;BME280;65132;52.088;5.402;2023-01-29T09:46:22;102850.34;;;3.79;76.82
76321;BME280;65132;52.088;5.402;2023-01-29T09:48:56;102842.91;;;3.87;76.42
76321;BME280;65132;52.088;5.402;2023-01-29T09:51:33;102857.66;;;3.99;76.29
76321;BME280;65132;52.088;5.402;2023-01-29T09:54:15;102847.78;;;4.01;77.35
76321;BME280;65132;52.088;5.402;2023-01-29T09:56:44;102856.03;;;3.95;77.20
76321;BME280;65132;52.088;5.402;2023-01-29T09:59:12;102844.56;;;3.91;77.12
76321;BME280;65132;52.088;5.402;2023-01-29T10:01:52;102832.75;;;3.97;76.85
76321;BME280;65132;52.088;5.402;2023-01-29T10:04:49;102840.81;;;3.95;76.35
76321;BME280;65132;52.088;5.402;2023-01-29T10:10:36;102846.91;;;4.00;76.63
76321;BME280;65132;52.088;5.402;2023-01-29T10:13:35;102856.66;;;4.03;77.05
76321;BME280;65132;52.088;5.402;2023-01-29T10:24:51;102840.66;;;4.24;76.04
76321;BME280;65132;52.088;5.402;2023-01-29T10:27:19;102833.97;;;4.13;76.98
76321;BME280;65132;52.088;5.402;2023-01-29T10:29:48;102835.38;;;4.23;75.78
76321;BME280;65132;52.088;5.402;2023-01-29T10:32:20;102822.09;;;4.20;75.91
76321;BME280;65132;52.088;5.402;2023-01-29T10:34:54;102827.84;;;4.09;76.12
76321;BME280;65132;52.088;5.402;2023-01-29T10:37:26;102809.25;;;4.05;76.55
76321;BME280;65132;52.088;5.402;2023-01-29T10:39:59;102811.09;;;4.03;76.69
76321;BME280;65132;52.088;5.402;2023-01-29T10:42:39;102813.06;;;3.98;77.82
76321;BME280;65132;52.088;5.402;2023-01-29T10:45:21;102803.91;;;4.05;76.82
76321;BME280;65132;52.088;5.402;2023-01-29T10:51:17;102789.41;;;4.10;76.97
76321;BME280;65132;52.088;5.402;2023-01-29T10:53:59;102787.72;;;4.31;77.18
76321;BME280;65132;52.088;5.402;2023-01-29T11:02:14;102766.91;;;4.39;75.95
76321;BME280;65132;52.088;5.402;2023-01-29T11:04:41;102760.06;;;4.30;75.76
76321;BME280;65132;52.088;5.402;2023-01-29T11:09:58;102760.84;;;4.34;76.27
76321;BME280;65132;52.088;5.402;2023-01-29T11:12:30;102757.97;;;4.38;76.42
76321;BME280;65132;52.088;5.402;2023-01-29T11:15:11;102753.81;;;4.53;75.75
76321;BME280;65132;52.088;5.402;2023-01-29T11:17:59;102756.75;;;4.47;76.39
76321;BME280;65132;52.088;5.402;2023-01-29T11:20:27;102748.38;;;4.56;76.15
76321;BME280;65132;52.088;5.402;2023-01-29T11:22:54;102760.13;;;4.52;75.74
76321;BME280;65132;52.088;5.402;2023-01-29T11:25:21;102752.34;;;4.46;77.34
76321;BME280;65132;52.088;5.402;2023-01-29T11:27:56;102751.13;;;4.53;76.52
76321;BME280;65132;52.088;5.402;2023-01-29T11:30:23;102748.38;;;4.56;76.49
76321;BME280;65132;52.088;5.402;2023-01-29T11:33:05;102733.94;;;4.58;75.91
76321;BME280;65132;52.088;5.402;2023-01-29T11:35:32;102744.59;;;4.60;76.37
76321;BME280;65132;52.088;5.402;2023-01-29T11:38:16;102740.25;;;4.57;75.94
76321;BME280;65132;52.088;5.402;2023-01-29T11:40:44;102739.25;;;4.60;76.39
76321;BME280;65132;52.088;5.402;2023-01-29T11:45:54;102735.25;;;4.48;76.83
76321;BME280;65132;52.088;5.402;2023-01-29T11:48:26;102727.38;;;4.44;77.11
76321;BME280;65132;52.088;5.402;2023-01-29T11:50:59;102714.97;;;4.41;77.03
76321;BME280;65132;52.088;5.402;2023-01-29T11:53:36;102714.22;;;4.38;76.90
76321;BME280;65132;52.088;5.402;2023-01-29T11:56:40;102721.63;;;4.54;77.67
76321;BME280;65132;52.088;5.402;2023-01-29T12:02:05;102704.72;;;4.52;78.31
76321;BME280;65132;52.088;5.402;2023-01-29T12:04:40;102706.50;;;4.52;77.42
76321;BME280;65132;52.088;5.402;2023-01-29T12:07:14;102691.00;;;4.60;77.40
76321;BME280;65132;52.088;5.402;2023-01-29T12:09:56;102693.53;;;4.41;77.37
76321;BME280;65132;52.088;5.402;2023-01-29T12:12:27;102697.38;;;4.57;77.15
76321;BME280;65132;52.088;5.402;2023-01-29T12:17:47;102685.00;;;4.53;78.04
76321;BME280;65132;52.088;5.402;2023-01-29T12:20:23;102685.00;;;4.53;77.65
76321;BME280;65132;52.088;5.402;2023-01-29T12:23:10;102674.13;;;4.58;78.29
76321;BME280;65132;52.088;5.402;2023-01-29T12:26:08;102654.34;;;4.60;78.12
76321;BME280;65132;52.088;5.402;2023-01-29T12:31:33;102650.56;;;4.43;78.92
76321;BME280;65132;52.088;5.402;2023-01-29T12:34:43;102655.78;;;4.47;79.01
76321;BME280;65132;52.088;5.402;2023-01-29T12:37:18;102649.78;;;4.41;79.49
76321;BME280;65132;52.088;5.402;2023-01-29T12:39:47;102634.25;;;4.49;79.06
76321;BME280;65132;52.088;5.402;2023-01-29T12:42:22;102630.41;;;4.56;78.27
76321;BME280;65132;52.088;5.402;2023-01-29T12:44:57;102626.59;;;4.40;78.93
76321;BME280;65132;52.088;5.402;2023-01-29T12:50:01;102618.66;;;4.58;78.06
76321;BME280;65132;52.088;5.402;2023-01-29T12:55:23;102608.50;;;4.45;79.11
76321;BME280;65132;52.088;5.402;2023-01-29T12:57:57;102596.53;;;4.53;78.75
76321;BME280;65132;52.088;5.402;2023-01-29T13:00:31;102587.81;;;4.48;79.57
76321;BME280;65132;52.088;5.402;2023-01-29T13:03:24;102572.69;;;4.47;79.85
76321;BME280;65132;52.088;5.402;2023-01-29T13:05:59;102568.84;;;4.53;79.41
76321;BME280;65132;52.088;5.402;2023-01-29T13:08:44;102556.94;;;4.60;79.41
76321;BME280;65132;52.088;5.402;2023-01-29T13:11:23;102548.63;;;4.46;79.29
76321;BME280;65132;52.088;5.402;2023-01-29T13:14:24;102547.81;;;4.44;79.88
76321;BME280;65132;52.088;5.402;2023-01-29T13:16:56;102535.63;;;4.57;78.94
76321;BME280;65132;52.088;5.402;2023-01-29T13:19:31;102525.97;;;4.53;79.77
76321;BME280;65132;52.088;5.402;2023-01-29T13:22:02;102523.56;;;4.47;80.03
76321;BME280;65132;52.088;5.402;2023-01-29T13:24:36;102517.91;;;4.53;79.67
76321;BME280;65132;52.088;5.402;2023-01-29T13:27:06;102507.41;;;4.48;79.62
76321;BME280;65132;52.088;5.402;2023-01-29T13:29:32;102500.03;;;4.53;80.01
76321;BME280;65132;52.088;5.402;2023-01-29T13:32:02;102492.66;;;4.58;80.26
76321;BME280;65132;52.088;5.402;2023-01-29T13:34:32;102490.34;;;4.71;79.34
76321;BME280;65132;52.088;5.402;2023-01-29T13:37:10;102489.75;;;4.64;79.11
76321;BME280;65132;52.088;5.402;2023-01-29T13:39:39;102490.19;;;4.74;79.36
76321;BME280;65132;52.088;5.402;2023-01-29T13:42:16;102484.63;;;4.78;78.94
76321;BME280;65132;52.088;5.402;2023-01-29T13:44:49;102493.31;;;4.85;78.86
76321;BME280;65132;52.088;5.402;2023-01-29T13:47:24;102486.03;;;4.87;78.86
76321;BME280;65132;52.088;5.402;2023-01-29T13:50:02;102482.69;;;4.82;79.08
76321;BME280;65132;52.088;5.402;2023-01-29T13:52:34;102472.94;;;5.00;78.48
76321;BME280;65132;52.088;5.402;2023-01-29T14:05:37;102473.44;;;4.89;79.60
76321;BME280;65132;52.088;5.402;2023-01-29T14:10:36;102472.94;;;5.00;78.65
76321;BME280;65132;52.088;5.402;2023-01-29T14:15:30;102466.03;;;4.94;79.15
76321;BME280;65132;52.088;5.402;2023-01-29T14:18:16;102467.81;;;4.95;79.45
76321;BME280;65132;52.088;5.402;2023-01-29T14:23:55;102455.34;;;5.13;78.81
76321;BME280;65132;52.088;5.402;2023-01-29T14:34:06;102459.41;;;5.21;79.38
76321;BME280;65132;52.088;5.402;2023-01-29T14:36:44;102457.69;;;5.20;79.53
76321;BME280;65132;52.088;5.402;2023-01-29T14:39:47;102447.38;;;5.11;79.49
76321;BME280;65132;52.088;5.402;2023-01-29T14:42:24;102439.34;;;5.30;78.78
76321;BME280;65132;52.088;5.402;2023-01-29T14:45:40;102440.13;;;5.13;79.63
76321;BME280;65132;52.088;5.402;2023-01-29T14:52:44;102436.63;;;5.11;80.11
76321;BME280;65132;52.088;5.402;2023-01-29T14:55:29;102432.88;;;5.15;79.85
76321;BME280;65132;52.088;5.402;2023-01-29T14:57:56;102428.59;;;5.11;80.30
76321;BME280;65132;52.088;5.402;2023-01-29T15:00:29;102427.38;;;5.18;80.01
76321;BME280;65132;52.088;5.402;2023-01-29T15:02:59;102427.94;;;5.06;80.13
76321;BME280;65132;52.088;5.402;2023-01-29T15:05:31;102421.56;;;5.09;80.24
76321;BME280;65132;52.088;5.402;2023-01-29T15:08:08;102415.25;;;5.10;80.42
76321;BME280;65132;52.088;5.402;2023-01-29T15:10:43;102410.63;;;5.13;80.83
76321;BME280;65132;52.088;5.402;2023-01-29T15:13:36;102404.09;;;5.19;79.87
76321;BME280;65132;52.088;5.402;2023-01-29T15:16:23;102403.63;;;5.09;80.39
76321;BME280;65132;52.088;5.402;2023-01-29T15:18:54;102400.91;;;5.11;79.75
76321;BME280;65132;52.088;5.402;2023-01-29T15:21:22;102400.97;;;5.09;80.27
76321;BME280;65132;52.088;5.402;2023-01-29T15:24:02;102398.72;;;5.00;80.95
76321;BME280;65132;52.088;5.402;2023-01-29T15:26:29;102395.88;;;5.03;80.66
76321;BME280;65132;52.088;5.402;2023-01-29T15:29:00;102394.94;;;5.04;80.65
76321;BME280;65132;52.088;5.402;2023-01-29T15:31:30;102400.53;;;5.00;80.84
76321;BME280;65132;52.088;5.402;2023-01-29T15:33:59;102392.41;;;5.01;80.69
76321;BME280;65132;52.088;5.402;2023-01-29T15:36:31;102395.38;;;4.95;80.60
76321;BME280;65132;52.088;5.402;2023-01-29T15:39:19;102390.88;;;4.96;80.93
76321;BME280;65132;52.088;5.402;2023-01-29T15:41:47;102384.72;;;4.94;81.40